Dunphy, Nevada
Current Conditions -  °F | °C
As of 12:56 PM on Friday 31 Oct 2014 (Local Time) from KEKO Reporting Station
Clear Clear  
Wind Chill: 65°   Ceiling: Unl
Heat Index: 65°   Visibility: 10mi
Dew Point: 21°   Wind: 18mph
Humidity: 19%   Direction: 180°S
Pressure: 29.86"   Gusts: 26mph
Location:  40.4796°N, 116.369°W
Report Text: KEKO 311956Z AUTO 18016G23KT 10SM CLR 18/M06 A2986 RMK AO2 PK WND 19027/1917 SLP081 T01831061
Loading
Personal Weather Stations






























Interactive Weather Map
Tropical Storm Tracking
New forecast layout! Learn more

10-Day Weather Forecast

Advertisements
Track Severe Weather on mobile